sensor_id;sensor_type;location;lat;lon;timestamp;temperature;humidity
41720;DHT22;27405;53.316;-6.294;2023-03-05T00:00:12;5.40;96.70
41720;DHT22;27405;53.316;-6.294;2023-03-05T00:02:38;5.40;96.70
41720;DHT22;27405;53.316;-6.294;2023-03-05T00:05:04;5.40;96.70
41720;DHT22;27405;53.316;-6.294;2023-03-05T00:07:31;5.40;96.80
41720;DHT22;27405;53.316;-6.294;2023-03-05T00:10:01;5.40;96.90
41720;DHT22;27405;53.316;-6.294;2023-03-05T00:12:27;5.40;96.80
41720;DHT22;27405;53.316;-6.294;2023-03-05T00:14:53;5.40;96.80
41720;DHT22;27405;53.316;-6.294;2023-03-05T00:17:19;5.40;96.80
41720;DHT22;27405;53.316;-6.294;2023-03-05T00:19:45;5.40;96.80
41720;DHT22;27405;53.316;-6.294;2023-03-05T00:22:10;5.40;96.80
41720;DHT22;27405;53.316;-6.294;2023-03-05T00:24:36;5.40;96.80
41720;DHT22;27405;53.316;-6.294;2023-03-05T00:27:01;5.40;96.90
41720;DHT22;27405;53.316;-6.294;2023-03-05T00:29:28;5.40;96.80
41720;DHT22;27405;53.316;-6.294;2023-03-05T00:31:54;5.40;96.90
41720;DHT22;27405;53.316;-6.294;2023-03-05T00:34:20;5.40;96.80
41720;DHT22;27405;53.316;-6.294;2023-03-05T00:36:51;5.40;96.90
41720;DHT22;27405;53.316;-6.294;2023-03-05T00:39:18;5.40;96.80
41720;DHT22;27405;53.316;-6.294;2023-03-05T00:41:44;5.40;96.90
41720;DHT22;27405;53.316;-6.294;2023-03-05T00:44:10;5.40;96.90
41720;DHT22;27405;53.316;-6.294;2023-03-05T00:46:36;5.40;96.90
41720;DHT22;27405;53.316;-6.294;2023-03-05T00:49:02;5.40;96.80
41720;DHT22;27405;53.316;-6.294;2023-03-05T00:51:28;5.40;96.80
41720;DHT22;27405;53.316;-6.294;2023-03-05T00:53:54;5.40;96.90
41720;DHT22;27405;53.316;-6.294;2023-03-05T00:56:20;5.40;96.80
41720;DHT22;27405;53.316;-6.294;2023-03-05T00:58:46;5.40;96.80
41720;DHT22;27405;53.316;-6.294;2023-03-05T01:01:12;5.40;96.80
41720;DHT22;27405;53.316;-6.294;2023-03-05T01:03:38;5.40;96.90
41720;DHT22;27405;53.316;-6.294;2023-03-05T01:06:06;5.40;96.90
41720;DHT22;27405;53.316;-6.294;2023-03-05T01:08:33;5.40;96.90
41720;DHT22;27405;53.316;-6.294;2023-03-05T01:10:59;5.40;96.90
41720;DHT22;27405;53.316;-6.294;2023-03-05T01:13:25;5.50;96.90
41720;DHT22;27405;53.316;-6.294;2023-03-05T01:15:51;5.40;96.80
41720;DHT22;27405;53.316;-6.294;2023-03-05T01:18:17;5.40;96.90
41720;DHT22;27405;53.316;-6.294;2023-03-05T01:20:43;5.40;97.00
41720;DHT22;27405;53.316;-6.294;2023-03-05T01:23:09;5.50;97.00
41720;DHT22;27405;53.316;-6.294;2023-03-05T01:25:35;5.40;96.90
41720;DHT22;27405;53.316;-6.294;2023-03-05T01:28:02;5.50;96.90
41720;DHT22;27405;53.316;-6.294;2023-03-05T01:30:27;5.40;96.90
41720;DHT22;27405;53.316;-6.294;2023-03-05T01:32:54;5.40;96.90
41720;DHT22;27405;53.316;-6.294;2023-03-05T01:35:22;5.40;96.90
41720;DHT22;27405;53.316;-6.294;2023-03-05T01:37:49;5.40;96.80
41720;DHT22;27405;53.316;-6.294;2023-03-05T01:40:20;5.30;96.90
41720;DHT22;27405;53.316;-6.294;2023-03-05T01:42:48;5.30;96.90
41720;DHT22;27405;53.316;-6.294;2023-03-05T01:45:16;5.30;96.90
41720;DHT22;27405;53.316;-6.294;2023-03-05T01:47:43;5.30;96.90
41720;DHT22;27405;53.316;-6.294;2023-03-05T01:50:12;5.30;96.90
41720;DHT22;27405;53.316;-6.294;2023-03-05T01:52:40;5.30;96.90
41720;DHT22;27405;53.316;-6.294;2023-03-05T01:55:18;5.40;97.00
41720;DHT22;27405;53.316;-6.294;2023-03-05T01:57:58;5.30;97.00
41720;DHT22;27405;53.316;-6.294;2023-03-05T02:00:30;5.40;97.10
41720;DHT22;27405;53.316;-6.294;2023-03-05T02:02:57;5.40;97.10
41720;DHT22;27405;53.316;-6.294;2023-03-05T02:05:29;5.40;96.90
41720;DHT22;27405;53.316;-6.294;2023-03-05T02:08:00;5.40;96.90
41720;DHT22;27405;53.316;-6.294;2023-03-05T02:10:32;5.30;96.90
41720;DHT22;27405;53.316;-6.294;2023-03-05T02:13:00;5.40;96.90
41720;DHT22;27405;53.316;-6.294;2023-03-05T02:15:28;5.30;96.90
41720;DHT22;27405;53.316;-6.294;2023-03-05T02:17:54;5.30;96.80
41720;DHT22;27405;53.316;-6.294;2023-03-05T02:20:22;5.30;96.90
41720;DHT22;27405;53.316;-6.294;2023-03-05T02:22:49;5.30;96.90
41720;DHT22;27405;53.316;-6.294;2023-03-05T02:25:24;5.30;96.90
41720;DHT22;27405;53.316;-6.294;2023-03-05T02:28:04;5.30;96.90
41720;DHT22;27405;53.316;-6.294;2023-03-05T02:30:31;5.30;96.90
41720;DHT22;27405;53.316;-6.294;2023-03-05T02:32:57;5.30;96.90
41720;DHT22;27405;53.316;-6.294;2023-03-05T02:35:23;5.30;96.90
41720;DHT22;27405;53.316;-6.294;2023-03-05T02:37:49;5.20;96.90
41720;DHT22;27405;53.316;-6.294;2023-03-05T02:40:16;5.20;97.00
41720;DHT22;27405;53.316;-6.294;2023-03-05T02:42:42;5.20;96.90
41720;DHT22;27405;53.316;-6.294;2023-03-05T02:45:09;5.20;96.90
41720;DHT22;27405;53.316;-6.294;2023-03-05T02:47:35;5.20;97.00
41720;DHT22;27405;53.316;-6.294;2023-03-05T02:50:01;5.10;97.00
41720;DHT22;27405;53.316;-6.294;2023-03-05T02:52:28;5.20;97.10
41720;DHT22;27405;53.316;-6.294;2023-03-05T02:54:54;5.20;97.10
41720;DHT22;27405;53.316;-6.294;2023-03-05T02:57:20;5.20;97.10
41720;DHT22;27405;53.316;-6.294;2023-03-05T02:59:46;5.20;97.10
41720;DHT22;27405;53.316;-6.294;2023-03-05T03:02:12;5.20;97.10
41720;DHT22;27405;53.316;-6.294;2023-03-05T03:04:38;5.20;97.10
41720;DHT22;27405;53.316;-6.294;2023-03-05T03:07:04;5.10;97.10
41720;DHT22;27405;53.316;-6.294;2023-03-05T03:09:29;5.10;97.10
41720;DHT22;27405;53.316;-6.294;2023-03-05T03:11:55;5.10;97.20
41720;DHT22;27405;53.316;-6.294;2023-03-05T03:14:21;5.10;97.30
41720;DHT22;27405;53.316;-6.294;2023-03-05T03:16:47;5.10;97.20
41720;DHT22;27405;53.316;-6.294;2023-03-05T03:19:12;5.10;97.20
41720;DHT22;27405;53.316;-6.294;2023-03-05T03:21:39;5.10;97.30
41720;DHT22;27405;53.316;-6.294;2023-03-05T03:24:05;5.10;97.30
41720;DHT22;27405;53.316;-6.294;2023-03-05T03:26:30;5.10;97.30
41720;DHT22;27405;53.316;-6.294;2023-03-05T03:28:56;5.10;97.60
41720;DHT22;27405;53.316;-6.294;2023-03-05T03:31:22;5.10;97.30
41720;DHT22;27405;53.316;-6.294;2023-03-05T03:33:48;5.00;97.40
41720;DHT22;27405;53.316;-6.294;2023-03-05T03:36:14;5.00;97.40
41720;DHT22;27405;53.316;-6.294;2023-03-05T03:38:40;5.10;97.50
41720;DHT22;27405;53.316;-6.294;2023-03-05T03:41:06;5.00;97.40
41720;DHT22;27405;53.316;-6.294;2023-03-05T03:43:35;5.00;97.50
41720;DHT22;27405;53.316;-6.294;2023-03-05T03:46:04;5.00;97.50
41720;DHT22;27405;53.316;-6.294;2023-03-05T03:48:30;5.10;97.60
41720;DHT22;27405;53.316;-6.294;2023-03-05T03:50:56;5.10;97.50
41720;DHT22;27405;53.316;-6.294;2023-03-05T03:53:21;5.10;97.60
41720;DHT22;27405;53.316;-6.294;2023-03-05T03:55:47;5.00;97.80
41720;DHT22;27405;53.316;-6.294;2023-03-05T03:58:13;5.00;97.60
41720;DHT22;27405;53.316;-6.294;2023-03-05T04:00:39;5.00;97.60
41720;DHT22;27405;53.316;-6.294;2023-03-05T04:03:05;5.00;97.60
41720;DHT22;27405;53.316;-6.294;2023-03-05T04:05:31;4.90;97.60
41720;DHT22;27405;53.316;-6.294;2023-03-05T04:07:57;5.00;97.80
41720;DHT22;27405;53.316;-6.294;2023-03-05T04:10:24;5.00;97.80
41720;DHT22;27405;53.316;-6.294;2023-03-05T04:12:50;5.00;97.90
41720;DHT22;27405;53.316;-6.294;2023-03-05T04:15:16;5.10;97.80
41720;DHT22;27405;53.316;-6.294;2023-03-05T04:17:41;5.00;97.80
41720;DHT22;27405;53.316;-6.294;2023-03-05T04:20:08;5.00;97.80
41720;DHT22;27405;53.316;-6.294;2023-03-05T04:22:35;5.00;97.80
41720;DHT22;27405;53.316;-6.294;2023-03-05T04:25:02;5.00;97.80
41720;DHT22;27405;53.316;-6.294;2023-03-05T04:27:31;5.00;97.80
41720;DHT22;27405;53.316;-6.294;2023-03-05T04:29:58;4.90;97.80
41720;DHT22;27405;53.316;-6.294;2023-03-05T04:32:23;4.90;97.90
41720;DHT22;27405;53.316;-6.294;2023-03-05T04:34:55;4.90;98.00
41720;DHT22;27405;53.316;-6.294;2023-03-05T04:37:20;4.90;98.00
41720;DHT22;27405;53.316;-6.294;2023-03-05T04:39:46;4.90;98.00
41720;DHT22;27405;53.316;-6.294;2023-03-05T04:42:12;4.90;98.00
41720;DHT22;27405;53.316;-6.294;2023-03-05T04:44:37;4.90;98.10
41720;DHT22;27405;53.316;-6.294;2023-03-05T04:47:03;5.00;98.20
41720;DHT22;27405;53.316;-6.294;2023-03-05T04:49:29;4.90;98.10
41720;DHT22;27405;53.316;-6.294;2023-03-05T04:51:55;5.00;98.20
41720;DHT22;27405;53.316;-6.294;2023-03-05T04:54:22;4.90;98.20
41720;DHT22;27405;53.316;-6.294;2023-03-05T04:56:48;5.00;98.20
41720;DHT22;27405;53.316;-6.294;2023-03-05T04:59:14;5.00;98.20
41720;DHT22;27405;53.316;-6.294;2023-03-05T05:01:40;4.90;98.10
41720;DHT22;27405;53.316;-6.294;2023-03-05T05:04:05;4.90;98.10
41720;DHT22;27405;53.316;-6.294;2023-03-05T05:06:32;4.90;98.10
41720;DHT22;27405;53.316;-6.294;2023-03-05T05:08:57;4.80;98.10
41720;DHT22;27405;53.316;-6.294;2023-03-05T05:11:23;4.80;98.20
41720;DHT22;27405;53.316;-6.294;2023-03-05T05:13:51;4.80;98.20
41720;DHT22;27405;53.316;-6.294;2023-03-05T05:16:19;4.80;98.30
41720;DHT22;27405;53.316;-6.294;2023-03-05T05:18:44;4.80;98.30
41720;DHT22;27405;53.316;-6.294;2023-03-05T05:21:12;4.80;98.30
41720;DHT22;27405;53.316;-6.294;2023-03-05T05:23:38;4.80;98.40
41720;DHT22;27405;53.316;-6.294;2023-03-05T05:26:05;4.80;98.30
41720;DHT22;27405;53.316;-6.294;2023-03-05T05:28:32;4.80;98.40
41720;DHT22;27405;53.316;-6.294;2023-03-05T05:30:58;4.80;98.40
41720;DHT22;27405;53.316;-6.294;2023-03-05T05:33:24;4.80;98.40
41720;DHT22;27405;53.316;-6.294;2023-03-05T05:35:50;4.80;98.50
41720;DHT22;27405;53.316;-6.294;2023-03-05T05:38:16;4.80;98.60
41720;DHT22;27405;53.316;-6.294;2023-03-05T05:40:42;4.90;98.60
41720;DHT22;27405;53.316;-6.294;2023-03-05T05:43:08;4.80;98.60
41720;DHT22;27405;53.316;-6.294;2023-03-05T05:45:36;4.90;98.60
41720;DHT22;27405;53.316;-6.294;2023-03-05T05:48:01;4.90;98.60
41720;DHT22;27405;53.316;-6.294;2023-03-05T05:50:27;4.90;98.50
41720;DHT22;27405;53.316;-6.294;2023-03-05T05:52:53;4.90;98.60
41720;DHT22;27405;53.316;-6.294;2023-03-05T05:55:19;4.90;98.70
41720;DHT22;27405;53.316;-6.294;2023-03-05T05:57:45;4.90;98.70
41720;DHT22;27405;53.316;-6.294;2023-03-05T06:00:12;4.90;98.70
41720;DHT22;27405;53.316;-6.294;2023-03-05T06:02:39;4.90;98.70
41720;DHT22;27405;53.316;-6.294;2023-03-05T06:05:06;4.90;98.60
41720;DHT22;27405;53.316;-6.294;2023-03-05T06:07:34;4.90;98.70
41720;DHT22;27405;53.316;-6.294;2023-03-05T06:09:59;4.90;98.80
41720;DHT22;27405;53.316;-6.294;2023-03-05T06:12:26;4.90;98.80
41720;DHT22;27405;53.316;-6.294;2023-03-05T06:14:52;4.90;98.90
41720;DHT22;27405;53.316;-6.294;2023-03-05T06:17:18;5.00;98.90
41720;DHT22;27405;53.316;-6.294;2023-03-05T06:19:44;5.00;98.90
41720;DHT22;27405;53.316;-6.294;2023-03-05T06:22:10;5.00;98.80
41720;DHT22;27405;53.316;-6.294;2023-03-05T06:24:37;5.00;98.80
41720;DHT22;27405;53.316;-6.294;2023-03-05T06:27:04;5.00;98.80
41720;DHT22;27405;53.316;-6.294;2023-03-05T06:29:30;5.00;98.80
41720;DHT22;27405;53.316;-6.294;2023-03-05T06:31:55;5.00;98.90
41720;DHT22;27405;53.316;-6.294;2023-03-05T06:34:21;5.00;98.90
41720;DHT22;27405;53.316;-6.294;2023-03-05T06:36:47;4.90;98.90
41720;DHT22;27405;53.316;-6.294;2023-03-05T06:39:13;5.00;98.90
41720;DHT22;27405;53.316;-6.294;2023-03-05T06:41:38;5.00;99.00
41720;DHT22;27405;53.316;-6.294;2023-03-05T06:44:04;5.00;99.00
41720;DHT22;27405;53.316;-6.294;2023-03-05T06:46:33;4.90;98.90
41720;DHT22;27405;53.316;-6.294;2023-03-05T06:49:00;4.90;99.00
41720;DHT22;27405;53.316;-6.294;2023-03-05T06:51:26;4.90;99.00
41720;DHT22;27405;53.316;-6.294;2023-03-05T06:53:54;4.90;99.00
41720;DHT22;27405;53.316;-6.294;2023-03-05T06:56:20;4.90;99.10
41720;DHT22;27405;53.316;-6.294;2023-03-05T06:58:47;4.90;99.10
41720;DHT22;27405;53.316;-6.294;2023-03-05T07:01:14;4.90;99.10
41720;DHT22;27405;53.316;-6.294;2023-03-05T07:03:41;4.80;99.20
41720;DHT22;27405;53.316;-6.294;2023-03-05T07:06:09;4.80;99.20
41720;DHT22;27405;53.316;-6.294;2023-03-05T07:08:36;4.80;99.30
41720;DHT22;27405;53.316;-6.294;2023-03-05T07:11:02;4.80;99.30
41720;DHT22;27405;53.316;-6.294;2023-03-05T07:13:28;4.80;99.30
41720;DHT22;27405;53.316;-6.294;2023-03-05T07:15:55;4.80;99.30
41720;DHT22;27405;53.316;-6.294;2023-03-05T07:18:20;4.90;99.30
41720;DHT22;27405;53.316;-6.294;2023-03-05T07:20:46;4.80;99.30
41720;DHT22;27405;53.316;-6.294;2023-03-05T07:23:12;4.80;99.40
41720;DHT22;27405;53.316;-6.294;2023-03-05T07:25:38;4.80;99.40
41720;DHT22;27405;53.316;-6.294;2023-03-05T07:28:04;4.80;99.40
41720;DHT22;27405;53.316;-6.294;2023-03-05T07:30:32;4.80;99.40
41720;DHT22;27405;53.316;-6.294;2023-03-05T07:32:58;4.90;99.40
41720;DHT22;27405;53.316;-6.294;2023-03-05T07:35:24;4.90;99.50
41720;DHT22;27405;53.316;-6.294;2023-03-05T07:37:50;4.90;99.50
41720;DHT22;27405;53.316;-6.294;2023-03-05T07:40:16;4.90;99.60
41720;DHT22;27405;53.316;-6.294;2023-03-05T07:42:42;5.00;99.60
41720;DHT22;27405;53.316;-6.294;2023-03-05T07:45:09;5.10;99.60
41720;DHT22;27405;53.316;-6.294;2023-03-05T07:47:35;5.00;99.50
41720;DHT22;27405;53.316;-6.294;2023-03-05T07:50:01;5.10;99.60
41720;DHT22;27405;53.316;-6.294;2023-03-05T07:52:28;5.10;99.60
41720;DHT22;27405;53.316;-6.294;2023-03-05T07:54:53;5.10;99.50
41720;DHT22;27405;53.316;-6.294;2023-03-05T07:57:19;5.10;99.50
41720;DHT22;27405;53.316;-6.294;2023-03-05T07:59:45;5.20;99.50
41720;DHT22;27405;53.316;-6.294;2023-03-05T08:02:12;5.20;99.60
41720;DHT22;27405;53.316;-6.294;2023-03-05T08:04:38;5.20;99.60
41720;DHT22;27405;53.316;-6.294;2023-03-05T08:07:04;5.20;99.60
41720;DHT22;27405;53.316;-6.294;2023-03-05T08:09:30;5.20;99.60
41720;DHT22;27405;53.316;-6.294;2023-03-05T08:11:56;5.20;99.60
41720;DHT22;27405;53.316;-6.294;2023-03-05T08:14:22;5.20;99.60
41720;DHT22;27405;53.316;-6.294;2023-03-05T08:16:48;5.20;99.60
41720;DHT22;27405;53.316;-6.294;2023-03-05T08:19:17;5.20;99.60
41720;DHT22;27405;53.316;-6.294;2023-03-05T08:21:44;5.20;99.70
41720;DHT22;27405;53.316;-6.294;2023-03-05T08:24:12;5.20;99.70
41720;DHT22;27405;53.316;-6.294;2023-03-05T08:26:39;5.30;99.70
41720;DHT22;27405;53.316;-6.294;2023-03-05T08:29:07;5.30;99.70
41720;DHT22;27405;53.316;-6.294;2023-03-05T08:31:33;5.30;99.80
41720;DHT22;27405;53.316;-6.294;2023-03-05T08:34:00;5.30;99.90
41720;DHT22;27405;53.316;-6.294;2023-03-05T08:36:27;5.40;99.90
41720;DHT22;27405;53.316;-6.294;2023-03-05T08:38:53;5.40;99.90
41720;DHT22;27405;53.316;-6.294;2023-03-05T08:41:19;5.50;99.80
41720;DHT22;27405;53.316;-6.294;2023-03-05T08:43:44;5.50;99.80
41720;DHT22;27405;53.316;-6.294;2023-03-05T08:46:12;5.50;99.80
41720;DHT22;27405;53.316;-6.294;2023-03-05T08:48:38;5.60;99.80
41720;DHT22;27405;53.316;-6.294;2023-03-05T08:51:12;5.60;99.80
41720;DHT22;27405;53.316;-6.294;2023-03-05T08:53:38;5.60;99.80
41720;DHT22;27405;53.316;-6.294;2023-03-05T08:56:04;5.60;99.80
41720;DHT22;27405;53.316;-6.294;2023-03-05T08:58:30;5.60;99.80
41720;DHT22;27405;53.316;-6.294;2023-03-05T09:00:56;5.60;99.80
41720;DHT22;27405;53.316;-6.294;2023-03-05T09:03:22;5.60;99.90
41720;DHT22;27405;53.316;-6.294;2023-03-05T09:05:47;5.70;99.90
41720;DHT22;27405;53.316;-6.294;2023-03-05T09:08:13;5.80;99.90
41720;DHT22;27405;53.316;-6.294;2023-03-05T09:10:42;5.80;99.90
41720;DHT22;27405;53.316;-6.294;2023-03-05T09:13:08;5.90;99.90
41720;DHT22;27405;53.316;-6.294;2023-03-05T09:15:34;5.90;99.90
41720;DHT22;27405;53.316;-6.294;2023-03-05T09:18:00;5.90;99.90
41720;DHT22;27405;53.316;-6.294;2023-03-05T09:20:25;5.90;99.90
41720;DHT22;27405;53.316;-6.294;2023-03-05T09:22:51;6.00;99.90
41720;DHT22;27405;53.316;-6.294;2023-03-05T09:25:17;6.10;99.90
41720;DHT22;27405;53.316;-6.294;2023-03-05T09:27:43;6.10;99.90
41720;DHT22;27405;53.316;-6.294;2023-03-05T09:30:11;6.10;99.90
41720;DHT22;27405;53.316;-6.294;2023-03-05T09:32:37;6.20;99.90
41720;DHT22;27405;53.316;-6.294;2023-03-05T09:35:03;6.20;99.90
41720;DHT22;27405;53.316;-6.294;2023-03-05T09:37:29;6.30;99.90
41720;DHT22;27405;53.316;-6.294;2023-03-05T09:39:55;6.30;99.80
41720;DHT22;27405;53.316;-6.294;2023-03-05T09:42:29;6.30;99.90
41720;DHT22;27405;53.316;-6.294;2023-03-05T09:45:26;6.40;99.90
41720;DHT22;27405;53.316;-6.294;2023-03-05T09:50:38;6.40;99.90
41720;DHT22;27405;53.316;-6.294;2023-03-05T09:53:34;6.50;99.90
41720;DHT22;27405;53.316;-6.294;2023-03-05T09:56:25;6.50;99.80
41720;DHT22;27405;53.316;-6.294;2023-03-05T09:58:55;6.60;99.90
41720;DHT22;27405;53.316;-6.294;2023-03-05T10:01:33;6.60;99.80
41720;DHT22;27405;53.316;-6.294;2023-03-05T10:06:39;6.70;99.80
41720;DHT22;27405;53.316;-6.294;2023-03-05T10:14:18;6.70;99.80
41720;DHT22;27405;53.316;-6.294;2023-03-05T10:19:59;6.90;99.90
41720;DHT22;27405;53.316;-6.294;2023-03-05T10:25:16;7.00;99.60
41720;DHT22;27405;53.316;-6.294;2023-03-05T10:36:26;7.00;99.60
41720;DHT22;27405;53.316;-6.294;2023-03-05T10:39:05;7.00;99.50
41720;DHT22;27405;53.316;-6.294;2023-03-05T10:42:06;7.00;99.60
41720;DHT22;27405;53.316;-6.294;2023-03-05T10:44:35;7.00;99.70
41720;DHT22;27405;53.316;-6.294;2023-03-05T10:47:02;7.10;99.80
41720;DHT22;27405;53.316;-6.294;2023-03-05T10:49:37;7.20;99.90
41720;DHT22;27405;53.316;-6.294;2023-03-05T10:52:12;7.30;99.90
41720;DHT22;27405;53.316;-6.294;2023-03-05T10:54:40;7.40;99.80
41720;DHT22;27405;53.316;-6.294;2023-03-05T10:57:22;7.40;99.90
41720;DHT22;27405;53.316;-6.294;2023-03-05T11:00:38;7.60;99.90
41720;DHT22;27405;53.316;-6.294;2023-03-05T11:03:01;7.70;99.80
41720;DHT22;27405;53.316;-6.294;2023-03-05T11:08:33;7.80;99.50
41720;DHT22;27405;53.316;-6.294;2023-03-05T11:16:28;7.90;99.60
41720;DHT22;27405;53.316;-6.294;2023-03-05T11:19:24;7.90;99.50
41720;DHT22;27405;53.316;-6.294;2023-03-05T11:22:23;7.90;99.40
41720;DHT22;27405;53.316;-6.294;2023-03-05T11:25:14;7.90;99.40
41720;DHT22;27405;53.316;-6.294;2023-03-05T11:27:50;8.00;99.50
41720;DHT22;27405;53.316;-6.294;2023-03-05T11:30:33;8.10;99.50
41720;DHT22;27405;53.316;-6.294;2023-03-05T11:33:13;8.20;99.50
41720;DHT22;27405;53.316;-6.294;2023-03-05T11:35:41;8.30;99.40
41720;DHT22;27405;53.316;-6.294;2023-03-05T11:38:21;8.30;99.20
41720;DHT22;27405;53.316;-6.294;2023-03-05T11:40:51;8.30;99.10
41720;DHT22;27405;53.316;-6.294;2023-03-05T11:43:19;8.30;99.10
41720;DHT22;27405;53.316;-6.294;2023-03-05T11:45:48;8.30;99.20
41720;DHT22;27405;53.316;-6.294;2023-03-05T11:48:24;8.40;99.30
41720;DHT22;27405;53.316;-6.294;2023-03-05T11:50:58;8.40;99.20
41720;DHT22;27405;53.316;-6.294;2023-03-05T11:53:30;8.40;99.10
41720;DHT22;27405;53.316;-6.294;2023-03-05T11:56:23;8.50;99.30
41720;DHT22;27405;53.316;-6.294;2023-03-05T11:59:19;8.50;99.30
41720;DHT22;27405;53.316;-6.294;2023-03-05T12:01:52;8.70;99.30
41720;DHT22;27405;53.316;-6.294;2023-03-05T12:04:19;8.70;99.20
41720;DHT22;27405;53.316;-6.294;2023-03-05T12:06:52;8.70;99.30
41720;DHT22;27405;53.316;-6.294;2023-03-05T12:17:46;8.80;99.30
41720;DHT22;27405;53.316;-6.294;2023-03-05T12:20:37;8.90;99.30
41720;DHT22;27405;53.316;-6.294;2023-03-05T12:23:15;8.90;99.30
41720;DHT22;27405;53.316;-6.294;2023-03-05T12:25:53;8.90;99.10
41720;DHT22;27405;53.316;-6.294;2023-03-05T12:31:04;8.80;99.10
41720;DHT22;27405;53.316;-6.294;2023-03-05T12:33:43;8.80;99.20
41720;DHT22;27405;53.316;-6.294;2023-03-05T12:36:32;8.70;99.40
41720;DHT22;27405;53.316;-6.294;2023-03-05T12:38:59;8.50;99.30
41720;DHT22;27405;53.316;-6.294;2023-03-05T12:41:31;8.50;99.40
41720;DHT22;27405;53.316;-6.294;2023-03-05T12:46:35;8.40;99.90
41720;DHT22;27405;53.316;-6.294;2023-03-05T12:51:46;8.40;99.90
41720;DHT22;27405;53.316;-6.294;2023-03-05T12:56:51;8.40;99.90
41720;DHT22;27405;53.316;-6.294;2023-03-05T12:59:20;8.50;99.90
41720;DHT22;27405;53.316;-6.294;2023-03-05T13:02:01;8.60;99.90
41720;DHT22;27405;53.316;-6.294;2023-03-05T13:04:30;8.70;99.90
41720;DHT22;27405;53.316;-6.294;2023-03-05T13:07:02;8.80;99.90
41720;DHT22;27405;53.316;-6.294;2023-03-05T13:09:30;9.00;99.90
41720;DHT22;27405;53.316;-6.294;2023-03-05T13:11:58;9.10;99.90
41720;DHT22;27405;53.316;-6.294;2023-03-05T13:14:42;9.30;99.90
41720;DHT22;27405;53.316;-6.294;2023-03-05T13:17:57;9.40;99.90
41720;DHT22;27405;53.316;-6.294;2023-03-05T13:25:43;9.60;99.90
41720;DHT22;27405;53.316;-6.294;2023-03-05T13:28:13;9.60;99.90
41720;DHT22;27405;53.316;-6.294;2023-03-05T13:30:44;9.50;99.90
41720;DHT22;27405;53.316;-6.294;2023-03-05T13:33:16;9.50;99.90
41720;DHT22;27405;53.316;-6.294;2023-03-05T13:35:44;9.50;99.90
41720;DHT22;27405;53.316;-6.294;2023-03-05T13:38:33;9.50;99.90
41720;DHT22;27405;53.316;-6.294;2023-03-05T13:41:14;9.40;99.90
41720;DHT22;27405;53.316;-6.294;2023-03-05T13:43:48;9.30;99.90
41720;DHT22;27405;53.316;-6.294;2023-03-05T13:46:37;9.20;99.90
41720;DHT22;27405;53.316;-6.294;2023-03-05T13:49:18;9.30;99.90
41720;DHT22;27405;53.316;-6.294;2023-03-05T13:51:46;9.30;99.90
41720;DHT22;27405;53.316;-6.294;2023-03-05T13:54:14;9.30;99.90
41720;DHT22;27405;53.316;-6.294;2023-03-05T13:56:57;9.40;99.90
41720;DHT22;27405;53.316;-6.294;2023-03-05T13:59:26;9.40;99.90
41720;DHT22;27405;53.316;-6.294;2023-03-05T14:01:54;9.50;99.90
41720;DHT22;27405;53.316;-6.294;2023-03-05T14:09:27;10.00;99.90
41720;DHT22;27405;53.316;-6.294;2023-03-05T14:14:23;9.90;99.90
41720;DHT22;27405;53.316;-6.294;2023-03-05T14:16:49;9.80;99.90
41720;DHT22;27405;53.316;-6.294;2023-03-05T14:19:35;9.80;99.80
41720;DHT22;27405;53.316;-6.294;2023-03-05T14:22:01;9.70;99.70
41720;DHT22;27405;53.316;-6.294;2023-03-05T14:24:28;9.70;99.70
41720;DHT22;27405;53.316;-6.294;2023-03-05T14:27:03;9.60;99.80
41720;DHT22;27405;53.316;-6.294;2023-03-05T14:29:33;9.70;99.80
41720;DHT22;27405;53.316;-6.294;2023-03-05T14:32:07;9.80;99.80
41720;DHT22;27405;53.316;-6.294;2023-03-05T14:34:49;9.90;99.60
41720;DHT22;27405;53.316;-6.294;2023-03-05T14:37:40;9.90;99.40
41720;DHT22;27405;53.316;-6.294;2023-03-05T14:40:21;10.00;99.20
41720;DHT22;27405;53.316;-6.294;2023-03-05T14:43:00;10.10;99.20
41720;DHT22;27405;53.316;-6.294;2023-03-05T14:45:37;10.20;99.10
41720;DHT22;27405;53.316;-6.294;2023-03-05T14:48:05;10.30;98.90
41720;DHT22;27405;53.316;-6.294;2023-03-05T14:50:34;10.40;98.80
41720;DHT22;27405;53.316;-6.294;2023-03-05T14:53:06;10.40;98.60
41720;DHT22;27405;53.316;-6.294;2023-03-05T14:55:33;10.40;98.40
41720;DHT22;27405;53.316;-6.294;2023-03-05T14:58:10;10.40;98.20
41720;DHT22;27405;53.316;-6.294;2023-03-05T15:00:36;10.30;98.10
41720;DHT22;27405;53.316;-6.294;2023-03-05T15:03:02;10.30;98.00
41720;DHT22;27405;53.316;-6.294;2023-03-05T15:05:28;10.40;98.00
41720;DHT22;27405;53.316;-6.294;2023-03-05T15:07:54;10.60;97.90
41720;DHT22;27405;53.316;-6.294;2023-03-05T15:10:23;10.60;97.60
41720;DHT22;27405;53.316;-6.294;2023-03-05T15:12:49;10.60;97.20
41720;DHT22;27405;53.316;-6.294;2023-03-05T15:15:16;10.60;97.40
41720;DHT22;27405;53.316;-6.294;2023-03-05T15:17:43;10.70;97.40
41720;DHT22;27405;53.316;-6.294;2023-03-05T15:20:24;10.70;97.40
41720;DHT22;27405;53.316;-6.294;2023-03-05T15:22:50;10.80;97.00
41720;DHT22;27405;53.316;-6.294;2023-03-05T15:25:18;10.90;97.20
41720;DHT22;27405;53.316;-6.294;2023-03-05T15:27:44;11.00;96.60
41720;DHT22;27405;53.316;-6.294;2023-03-05T15:32:45;10.90;96.10
41720;DHT22;27405;53.316;-6.294;2023-03-05T15:35:11;10.90;96.10
41720;DHT22;27405;53.316;-6.294;2023-03-05T15:37:37;10.90;95.90
41720;DHT22;27405;53.316;-6.294;2023-03-05T15:40:03;10.90;96.00
41720;DHT22;27405;53.316;-6.294;2023-03-05T15:42:29;10.90;95.80
41720;DHT22;27405;53.316;-6.294;2023-03-05T15:44:54;11.00;95.70
41720;DHT22;27405;53.316;-6.294;2023-03-05T15:47:20;11.00;95.90
41720;DHT22;27405;53.316;-6.294;2023-03-05T15:49:45;10.90;95.50
41720;DHT22;27405;53.316;-6.294;2023-03-05T15:52:11;10.80;95.50
41720;DHT22;27405;53.316;-6.294;2023-03-05T15:54:39;10.70;95.60
41720;DHT22;27405;53.316;-6.294;2023-03-05T15:57:08;10.80;96.00
41720;DHT22;27405;53.316;-6.294;2023-03-05T15:59:34;10.80;96.10
41720;DHT22;27405;53.316;-6.294;2023-03-05T16:01:59;10.70;95.80
41720;DHT22;27405;53.316;-6.294;2023-03-05T16:04:26;10.70;96.00
41720;DHT22;27405;53.316;-6.294;2023-03-05T16:06:54;10.80;95.90
41720;DHT22;27405;53.316;-6.294;2023-03-05T16:09:21;10.80;95.60
41720;DHT22;27405;53.316;-6.294;2023-03-05T16:11:48;10.70;95.70
41720;DHT22;27405;53.316;-6.294;2023-03-05T16:14:16;10.60;95.90
41720;DHT22;27405;53.316;-6.294;2023-03-05T16:16:44;10.60;96.20
41720;DHT22;27405;53.316;-6.294;2023-03-05T16:19:10;10.70;96.30
41720;DHT22;27405;53.316;-6.294;2023-03-05T16:21:36;10.60;96.30
41720;DHT22;27405;53.316;-6.294;2023-03-05T16:24:02;10.70;96.20
41720;DHT22;27405;53.316;-6.294;2023-03-05T16:26:28;10.70;96.10
41720;DHT22;27405;53.316;-6.294;2023-03-05T16:28:54;10.60;96.10
41720;DHT22;27405;53.316;-6.294;2023-03-05T16:31:20;10.60;96.10
41720;DHT22;27405;53.316;-6.294;2023-03-05T16:33:45;10.50;96.10
41720;DHT22;27405;53.316;-6.294;2023-03-05T16:36:18;10.50;96.50
41720;DHT22;27405;53.316;-6.294;2023-03-05T16:38:47;10.40;96.20
41720;DHT22;27405;53.316;-6.294;2023-03-05T16:41:16;10.40;96.20
41720;DHT22;27405;53.316;-6.294;2023-03-05T16:43:44;10.30;96.20
41720;DHT22;27405;53.316;-6.294;2023-03-05T16:46:10;10.30;96.30
41720;DHT22;27405;53.316;-6.294;2023-03-05T16:48:36;10.20;96.40